createdAt,value
2022-11-18T00:01:20.496Z,7.75
2022-11-18T00:03:49.244Z,7.80
2022-11-18T00:06:20.388Z,7.82
2022-11-18T00:08:48.753Z,7.87
2022-11-18T00:11:38.677Z,7.90
2022-11-18T00:14:20.733Z,7.89
2022-11-18T00:16:48.438Z,7.94
2022-11-18T00:19:16.455Z,7.96
2022-11-18T00:21:44.198Z,7.98
2022-11-18T00:24:11.641Z,8.02
2022-11-18T00:26:39.388Z,8.03
2022-11-18T00:29:06.840Z,8.03
2022-11-18T00:31:34.233Z,8.06
2022-11-18T00:34:01.972Z,8.11
2022-11-18T00:36:29.702Z,8.04
2022-11-18T00:38:57.323Z,8.11
2022-11-18T00:41:45.207Z,8.08
2022-11-18T00:44:12.796Z,8.11
2022-11-18T00:46:40.585Z,8.08
2022-11-18T00:49:08.595Z,8.12
2022-11-18T00:51:36.301Z,8.16
2022-11-18T00:54:04.712Z,8.19
2022-11-18T00:56:32.624Z,8.16
2022-11-18T00:59:00.195Z,8.17
2022-11-18T01:01:27.978Z,8.14
2022-11-18T01:03:55.475Z,8.11
2022-11-18T01:06:23.540Z,8.14
2022-11-18T01:08:51.523Z,8.12
2022-11-18T01:11:37.759Z,8.09
2022-11-18T01:14:05.553Z,8.03
2022-11-18T01:16:33.056Z,7.97
2022-11-18T01:19:00.560Z,7.93
2022-11-18T01:21:29.200Z,7.97
2022-11-18T01:23:56.632Z,7.86
2022-11-18T01:26:24.144Z,7.94
2022-11-18T01:28:56.459Z,8.02
2022-11-18T01:31:24.360Z,7.97
2022-11-18T01:33:52.324Z,8.00
2022-11-18T01:36:23.215Z,8.02
2022-11-18T01:38:51.557Z,8.01
2022-11-18T01:41:21.838Z,8.07
2022-11-18T01:43:52.012Z,8.10
2022-11-18T01:46:21.116Z,8.07
2022-11-18T01:48:54.009Z,8.10
2022-11-18T01:51:27.264Z,8.11
2022-11-18T01:54:01.699Z,8.04
2022-11-18T01:56:39.143Z,7.95
2022-11-18T01:59:11.382Z,8.02
2022-11-18T02:01:39.934Z,8.03
2022-11-18T02:04:09.983Z,8.09
2022-11-18T02:06:37.842Z,8.10
2022-11-18T02:09:05.388Z,8.12
2022-11-18T02:11:51.690Z,8.11
2022-11-18T02:14:23.076Z,8.11
2022-11-18T02:17:13.391Z,8.07
2022-11-18T02:19:47.137Z,8.04
2022-11-18T02:22:23.555Z,8.02
2022-11-18T02:25:33.766Z,8.01
2022-11-18T02:28:34.912Z,8.02
2022-11-18T02:31:06.843Z,8.03
2022-11-18T02:33:48.728Z,8.01
2022-11-18T02:36:22.786Z,8.04
2022-11-18T02:38:56.133Z,8.06
2022-11-18T02:41:28.004Z,8.01
2022-11-18T02:44:03.227Z,7.99
2022-11-18T02:46:34.778Z,7.96
2022-11-18T02:49:08.052Z,7.94
2022-11-18T02:51:37.006Z,7.95
2022-11-18T02:54:08.639Z,7.94
2022-11-18T02:56:37.425Z,7.92
2022-11-18T02:59:05.492Z,7.87
2022-11-18T03:01:35.383Z,7.93
2022-11-18T03:04:03.389Z,7.92
2022-11-18T03:06:38.474Z,7.95
2022-11-18T03:09:15.303Z,7.98
2022-11-18T03:12:02.807Z,7.92
2022-11-18T03:14:33.276Z,7.86
2022-11-18T03:17:03.663Z,7.87
2022-11-18T03:19:46.519Z,7.75
2022-11-18T03:22:38.884Z,7.85
2022-11-18T03:25:11.906Z,7.84
2022-11-18T03:28:08.057Z,7.89
2022-11-18T03:30:39.573Z,7.88
2022-11-18T03:33:11.952Z,7.77
2022-11-18T03:35:43.549Z,7.78
2022-11-18T03:38:16.496Z,7.82
2022-11-18T03:40:50.928Z,7.74
2022-11-18T03:43:24.421Z,7.80
2022-11-18T03:45:58.036Z,7.81
2022-11-18T03:48:38.828Z,7.65
2022-11-18T03:51:10.908Z,7.50
2022-11-18T03:53:43.269Z,7.44
2022-11-18T03:56:17.548Z,7.35
2022-11-18T03:58:51.276Z,7.35
2022-11-18T04:01:29.195Z,7.49
2022-11-18T04:03:57.020Z,7.56
2022-11-18T04:06:32.162Z,7.57
2022-11-18T04:09:03.558Z,7.62
2022-11-18T04:11:57.128Z,7.63
2022-11-18T04:14:24.829Z,7.63
2022-11-18T04:16:53.505Z,7.45
2022-11-18T04:19:21.429Z,7.48
2022-11-18T04:21:49.788Z,7.55
2022-11-18T04:24:17.281Z,7.56
2022-11-18T04:26:44.768Z,7.64
2022-11-18T04:29:12.601Z,7.59
2022-11-18T04:31:40.052Z,7.63
2022-11-18T04:34:07.496Z,7.65
2022-11-18T04:36:35.184Z,7.68
2022-11-18T04:39:02.840Z,7.63
2022-11-18T04:41:48.845Z,7.67
2022-11-18T04:44:16.548Z,7.70
2022-11-18T04:46:44.863Z,7.70
2022-11-18T04:49:14.743Z,7.66
2022-11-18T04:51:43.959Z,7.72
2022-11-18T04:54:12.569Z,7.65
2022-11-18T04:56:45.650Z,7.70
2022-11-18T04:59:19.601Z,7.78
2022-11-18T05:01:48.378Z,7.73
2022-11-18T05:04:18.759Z,7.65
2022-11-18T05:06:46.636Z,7.63
2022-11-18T05:09:14.426Z,7.65
2022-11-18T05:12:00.671Z,7.63
2022-11-18T05:14:29.319Z,7.68
2022-11-18T05:16:58.912Z,7.74
2022-11-18T05:19:26.416Z,7.78
2022-11-18T05:21:54.230Z,7.79
2022-11-18T05:24:24.246Z,7.78
2022-11-18T05:26:52.847Z,7.82
2022-11-18T05:29:21.097Z,7.81
2022-11-18T05:31:49.377Z,7.84
2022-11-18T05:34:17.812Z,7.86
2022-11-18T05:36:45.616Z,7.85
2022-11-18T05:39:13.410Z,7.81
2022-11-18T05:41:59.688Z,7.83
2022-11-18T05:44:27.412Z,7.80
2022-11-18T05:46:55.303Z,7.79
2022-11-18T05:49:23.009Z,7.76
2022-11-18T05:51:50.782Z,7.78
2022-11-18T05:54:19.609Z,7.79
2022-11-18T05:56:48.343Z,7.75
2022-11-18T05:59:16.878Z,7.79
2022-11-18T06:01:59.831Z,7.80
2022-11-18T06:04:50.881Z,7.75
2022-11-18T06:07:42.887Z,7.76
2022-11-18T06:10:16.121Z,7.94
2022-11-18T06:12:47.091Z,8.58
2022-11-18T06:15:24.394Z,8.23
2022-11-18T06:18:02.697Z,8.12
2022-11-18T06:20:30.771Z,7.95
2022-11-18T06:22:58.782Z,7.98
2022-11-18T06:25:26.268Z,7.96
2022-11-18T06:27:57.671Z,7.96
2022-11-18T06:30:25.125Z,7.96
2022-11-18T06:32:52.580Z,7.92
2022-11-18T06:35:20.329Z,7.92
2022-11-18T06:37:47.872Z,7.89
2022-11-18T06:40:15.569Z,7.93
2022-11-18T06:43:02.021Z,7.96
2022-11-18T06:45:30.215Z,7.95
2022-11-18T06:48:00.346Z,7.94
2022-11-18T06:50:28.497Z,7.98
2022-11-18T06:52:59.779Z,8.03
2022-11-18T06:55:27.465Z,8.03
2022-11-18T06:57:56.760Z,8.04
2022-11-18T07:00:24.136Z,8.05
2022-11-18T07:02:51.807Z,8.08
2022-11-18T07:05:19.253Z,8.09
2022-11-18T07:07:46.804Z,8.07
2022-11-18T07:10:14.712Z,8.05
2022-11-18T07:12:42.084Z,8.05
2022-11-18T07:15:09.889Z,8.06
2022-11-18T07:17:37.614Z,8.11
2022-11-18T07:20:05.409Z,8.13
2022-11-18T07:22:32.852Z,8.17
2022-11-18T07:25:00.557Z,8.17
2022-11-18T07:27:28.002Z,8.18
2022-11-18T07:29:55.493Z,8.25
2022-11-18T07:32:23.349Z,8.32
2022-11-18T07:34:50.821Z,8.31
2022-11-18T07:37:18.233Z,8.30
2022-11-18T07:39:45.942Z,8.34
2022-11-18T07:42:16.305Z,8.35
2022-11-18T07:44:43.772Z,8.38
2022-11-18T07:47:11.508Z,8.40
2022-11-18T07:49:38.960Z,8.37
2022-11-18T07:52:06.702Z,8.43
2022-11-18T07:54:34.444Z,8.48
2022-11-18T07:57:01.896Z,8.55
2022-11-18T07:59:29.290Z,8.54
2022-11-18T08:01:57.659Z,8.54
2022-11-18T08:04:25.504Z,8.55
2022-11-18T08:06:52.967Z,8.55
2022-11-18T08:09:20.600Z,8.44
2022-11-18T08:11:48.439Z,8.51
2022-11-18T08:14:15.884Z,8.50
2022-11-18T08:16:43.312Z,8.47
2022-11-18T08:19:11.037Z,8.53
2022-11-18T08:21:38.525Z,8.57
2022-11-18T08:24:06.336Z,8.65
2022-11-18T08:26:34.082Z,8.68
2022-11-18T08:29:01.678Z,8.74
2022-11-18T08:31:33.387Z,8.83
2022-11-18T08:34:04.659Z,8.90
2022-11-18T08:36:34.106Z,8.92
2022-11-18T08:39:04.935Z,8.92
2022-11-18T08:41:35.131Z,9.00
2022-11-18T08:44:04.721Z,9.04
2022-11-18T08:46:32.756Z,9.10
2022-11-18T08:49:00.608Z,9.17
2022-11-18T08:51:28.672Z,9.17
2022-11-18T08:53:56.428Z,9.18
2022-11-18T08:56:24.843Z,9.15
2022-11-18T08:58:53.512Z,9.08
2022-11-18T09:01:21.015Z,9.15
2022-11-18T09:03:49.104Z,9.14
2022-11-18T09:06:22.888Z,9.20
2022-11-18T09:08:50.484Z,9.26
2022-11-18T09:11:21.036Z,9.34
2022-11-18T09:16:39.757Z,9.35
2022-11-18T09:19:32.050Z,9.32
2022-11-18T09:21:54.988Z,9.32
2022-11-18T09:24:22.464Z,9.35
2022-11-18T09:26:50.051Z,9.33
2022-11-18T09:29:17.840Z,9.39
2022-11-18T09:31:46.047Z,9.43
2022-11-18T09:34:13.439Z,9.43
2022-11-18T09:36:41.108Z,9.46
2022-11-18T09:39:08.500Z,9.45
2022-11-18T09:41:43.783Z,9.40
2022-11-18T09:44:57.406Z,9.36
2022-11-18T09:47:33.790Z,9.45
2022-11-18T09:50:41.783Z,9.38
2022-11-18T09:53:20.617Z,9.44
2022-11-18T09:55:51.061Z,9.51
2022-11-18T09:58:26.955Z,9.53
2022-11-18T10:00:54.940Z,9.51
2022-11-18T10:03:31.783Z,9.50
2022-11-18T10:06:29.420Z,9.43
2022-11-18T10:09:19.035Z,9.48
2022-11-18T10:12:05.056Z,9.55
2022-11-18T10:14:57.341Z,9.55
2022-11-18T10:17:32.780Z,9.59
2022-11-18T10:20:21.806Z,9.61
2022-11-18T10:23:38.636Z,9.61
2022-11-18T10:26:06.356Z,9.53
2022-11-18T10:28:34.076Z,9.50
2022-11-18T10:31:10.735Z,9.49
2022-11-18T10:33:39.202Z,9.49
2022-11-18T10:36:12.127Z,9.51
2022-11-18T10:38:39.980Z,9.54
2022-11-18T10:41:14.949Z,9.58
2022-11-18T10:43:48.750Z,9.59
2022-11-18T10:46:31.238Z,9.61
2022-11-18T10:49:16.469Z,9.61
2022-11-18T10:51:48.857Z,9.65
2022-11-18T10:54:20.228Z,9.68
2022-11-18T10:57:01.119Z,9.68
2022-11-18T10:59:51.115Z,9.76
2022-11-18T11:02:32.367Z,9.69
2022-11-18T11:12:25.134Z,9.78
2022-11-18T11:14:55.788Z,9.78
2022-11-18T11:17:48.312Z,9.77
2022-11-18T11:20:24.408Z,9.80
2022-11-18T11:22:51.914Z,9.73
2022-11-18T11:28:30.490Z,9.76
2022-11-18T11:31:19.996Z,9.76
2022-11-18T11:34:00.606Z,9.72
2022-11-18T11:36:52.970Z,9.76
2022-11-18T11:39:38.989Z,9.78
2022-11-18T11:42:18.198Z,9.72
2022-11-18T11:45:04.802Z,9.71
2022-11-18T11:47:49.547Z,9.76
2022-11-18T11:50:20.179Z,9.76
2022-11-18T11:53:13.982Z,9.80
2022-11-18T11:56:06.310Z,9.89
2022-11-18T11:58:49.141Z,9.93
2022-11-18T12:01:16.490Z,9.93
2022-11-18T12:03:53.198Z,10.00
2022-11-18T12:06:20.732Z,10.04
2022-11-18T12:09:14.211Z,9.99
2022-11-18T12:11:50.561Z,10.02
2022-11-18T12:14:41.373Z,10.03
2022-11-18T12:17:32.265Z,10.06
2022-11-18T12:19:59.989Z,10.06
2022-11-18T12:23:13.585Z,10.05
2022-11-18T12:25:50.358Z,10.08
2022-11-18T12:28:33.641Z,10.06
2022-11-18T12:31:16.447Z,10.09
2022-11-18T12:33:46.971Z,10.06
2022-11-18T12:36:34.067Z,10.03
2022-11-18T12:39:25.728Z,10.02
2022-11-18T12:42:23.197Z,10.03
2022-11-18T12:44:52.504Z,10.05
2022-11-18T12:47:42.132Z,10.04
2022-11-18T12:50:15.352Z,10.05
2022-11-18T12:52:43.013Z,10.05
2022-11-18T12:55:32.725Z,10.04
2022-11-18T12:58:00.629Z,10.07
2022-11-18T13:00:31.403Z,10.07
2022-11-18T13:03:01.610Z,10.05
2022-11-18T13:05:32.952Z,10.04
2022-11-18T13:08:15.890Z,10.06
2022-11-18T13:10:43.590Z,10.03
2022-11-18T13:13:26.246Z,10.06
2022-11-18T13:16:14.628Z,10.07
2022-11-18T13:18:50.351Z,10.05
2022-11-18T13:21:45.723Z,10.09
2022-11-18T13:24:14.502Z,10.10
2022-11-18T13:26:44.004Z,10.11
2022-11-18T13:29:20.597Z,10.12
2022-11-18T13:31:54.570Z,10.13
2022-11-18T13:34:28.318Z,10.09
2022-11-18T13:36:59.367Z,10.04
2022-11-18T13:39:29.677Z,10.04
2022-11-18T13:42:03.041Z,10.00
2022-11-18T13:44:39.222Z,9.96
2022-11-18T13:47:21.833Z,9.98
2022-11-18T13:50:07.505Z,9.93
2022-11-18T13:52:43.876Z,9.88
2022-11-18T13:55:28.403Z,9.86
2022-11-18T13:58:18.854Z,9.82
2022-11-18T14:00:58.231Z,9.86
2022-11-18T14:03:56.533Z,9.88
2022-11-18T14:06:30.002Z,9.84
2022-11-18T14:09:11.280Z,9.79
2022-11-18T14:11:42.012Z,9.79
2022-11-18T14:14:32.254Z,9.72
2022-11-18T14:17:21.927Z,9.73
2022-11-18T14:19:52.400Z,9.71
2022-11-18T14:22:42.675Z,9.64
2022-11-18T14:25:22.639Z,9.59
2022-11-18T14:27:55.637Z,9.61
2022-11-18T14:30:35.870Z,9.56
2022-11-18T14:33:06.101Z,9.54
2022-11-18T14:35:35.110Z,9.55
2022-11-18T14:41:03.343Z,9.48
2022-11-18T14:43:31.534Z,9.49
2022-11-18T14:46:01.641Z,9.48
2022-11-18T14:48:32.584Z,9.43
2022-11-18T14:51:00.893Z,9.39
2022-11-18T14:53:28.629Z,9.37
2022-11-18T14:55:58.642Z,9.33
2022-11-18T14:58:26.393Z,9.26
2022-11-18T15:00:54.226Z,9.24
2022-11-18T15:03:21.703Z,9.23
2022-11-18T15:05:49.509Z,9.20
2022-11-18T15:08:16.939Z,9.19
2022-11-18T15:10:44.482Z,9.18
2022-11-18T15:13:12.767Z,9.21
2022-11-18T15:15:40.177Z,9.24
2022-11-18T15:18:09.085Z,9.24
2022-11-18T15:20:36.752Z,9.25
2022-11-18T15:23:04.121Z,9.22
2022-11-18T15:25:31.579Z,9.23
2022-11-18T15:27:59.266Z,9.27
2022-11-18T15:30:26.662Z,9.21
2022-11-18T15:32:54.022Z,9.19
2022-11-18T15:35:21.705Z,9.20
2022-11-18T15:37:49.682Z,9.16
2022-11-18T15:40:17.382Z,9.15
2022-11-18T15:42:51.508Z,9.14
2022-11-18T15:45:19.583Z,9.10
2022-11-18T15:47:47.485Z,9.14
2022-11-18T15:50:15.161Z,9.13
2022-11-18T15:52:42.538Z,9.10
2022-11-18T15:55:10.366Z,9.05
2022-11-18T15:57:37.804Z,9.09
2022-11-18T16:00:05.610Z,9.10
2022-11-18T16:02:39.594Z,9.10
2022-11-18T16:05:07.735Z,9.09
2022-11-18T16:07:35.290Z,9.11
2022-11-18T16:10:31.940Z,9.12
2022-11-18T16:12:59.677Z,9.15
2022-11-18T16:15:48.082Z,9.14
2022-11-18T16:18:18.115Z,9.13
2022-11-18T16:20:45.632Z,9.13
2022-11-18T16:23:13.133Z,9.18
2022-11-18T16:25:46.192Z,9.13
2022-11-18T16:28:13.657Z,9.13
2022-11-18T16:31:00.350Z,9.17
2022-11-18T16:33:30.164Z,9.10
2022-11-18T16:35:57.870Z,9.12
2022-11-18T16:38:25.286Z,9.08
2022-11-18T16:40:59.809Z,9.07
2022-11-18T16:43:27.503Z,9.09
2022-11-18T16:45:55.661Z,9.04
2022-11-18T16:48:23.031Z,8.93
2022-11-18T16:51:23.125Z,8.96
2022-11-18T16:53:53.000Z,8.93
2022-11-18T16:56:29.074Z,8.92
2022-11-18T16:59:02.435Z,8.85
2022-11-18T17:01:30.823Z,8.82
2022-11-18T17:04:00.675Z,8.83
2022-11-18T17:06:30.436Z,8.77
2022-11-18T17:08:59.233Z,8.73
2022-11-18T17:11:26.837Z,8.69
2022-11-18T17:13:58.079Z,8.74
2022-11-18T17:16:26.656Z,8.70
2022-11-18T17:18:58.909Z,8.65
2022-11-18T17:21:29.183Z,8.64
2022-11-18T17:23:57.494Z,8.68
2022-11-18T17:26:27.544Z,8.65
2022-11-18T17:28:56.236Z,8.62
2022-11-18T17:31:25.031Z,8.63
2022-11-18T17:33:54.732Z,8.60
2022-11-18T17:36:24.659Z,8.59
2022-11-18T17:38:54.246Z,8.58
2022-11-18T17:41:43.089Z,8.56
2022-11-18T17:44:12.885Z,8.56
2022-11-18T17:46:41.374Z,8.57
2022-11-18T17:49:14.085Z,8.61
2022-11-18T17:51:42.122Z,8.59
2022-11-18T17:54:10.186Z,8.61
2022-11-18T17:56:37.837Z,8.60
2022-11-18T17:59:05.597Z,8.61
2022-11-18T18:01:33.123Z,8.67
2022-11-18T18:04:00.950Z,8.71
2022-11-18T18:06:28.583Z,8.69
2022-11-18T18:08:57.756Z,8.71
2022-11-18T18:11:26.804Z,8.75
2022-11-18T18:14:13.319Z,8.69
2022-11-18T18:16:46.624Z,8.75
2022-11-18T18:19:17.740Z,8.78
2022-11-18T18:21:45.892Z,8.79
2022-11-18T18:24:16.570Z,8.76
2022-11-18T18:26:45.634Z,8.75
2022-11-18T18:29:13.405Z,8.73
2022-11-18T18:31:41.090Z,8.72
2022-11-18T18:34:08.857Z,8.76
2022-11-18T18:36:36.343Z,8.78
2022-11-18T18:39:04.366Z,8.81
2022-11-18T18:41:32.684Z,8.78
2022-11-18T18:44:01.266Z,8.77
2022-11-18T18:46:30.741Z,8.80
2022-11-18T18:49:03.077Z,8.76
2022-11-18T18:51:35.071Z,8.80
2022-11-18T18:54:03.597Z,8.72
2022-11-18T18:56:31.547Z,8.77
2022-11-18T18:58:59.589Z,8.74
2022-11-18T19:01:28.350Z,8.75
2022-11-18T19:03:59.083Z,8.70
2022-11-18T19:09:17.126Z,8.60
2022-11-18T19:12:04.037Z,8.57
2022-11-18T19:14:33.457Z,8.64
2022-11-18T19:17:06.662Z,8.58
2022-11-18T19:19:57.247Z,8.61
2022-11-18T19:22:25.427Z,8.58
2022-11-18T19:24:53.869Z,8.53
2022-11-18T19:27:21.861Z,8.55
2022-11-18T19:29:49.753Z,8.53
2022-11-18T19:32:17.310Z,8.50
2022-11-18T19:34:44.724Z,8.52
2022-11-18T19:37:12.474Z,8.53
2022-11-18T19:39:39.836Z,8.51
2022-11-18T19:42:07.739Z,8.48
2022-11-18T19:44:35.385Z,8.50
2022-11-18T19:47:02.809Z,8.41
2022-11-18T19:49:30.159Z,8.38
2022-11-18T19:51:57.823Z,8.37
2022-11-18T19:54:25.155Z,8.36
2022-11-18T19:56:52.593Z,8.36
2022-11-18T19:59:20.480Z,8.42
2022-11-18T20:01:48.242Z,8.37
2022-11-18T20:04:16.046Z,8.31
2022-11-18T20:06:43.417Z,8.32
2022-11-18T20:09:11.712Z,8.34
2022-11-18T20:11:39.840Z,8.28
2022-11-18T20:14:08.385Z,8.32
2022-11-18T20:16:37.441Z,8.26
2022-11-18T20:19:10.849Z,8.29
2022-11-18T20:21:39.200Z,8.30
2022-11-18T20:24:08.227Z,8.34
2022-11-18T20:26:38.239Z,8.31
2022-11-18T20:29:09.118Z,8.31
2022-11-18T20:31:37.362Z,8.32
2022-11-18T20:34:05.417Z,8.29
2022-11-18T20:36:35.884Z,8.33
2022-11-18T20:39:12.442Z,8.27
2022-11-18T20:41:40.085Z,8.24
2022-11-18T20:44:07.751Z,8.24
2022-11-18T20:46:35.328Z,8.28
2022-11-18T20:49:02.849Z,8.27
2022-11-18T20:51:30.564Z,8.22
2022-11-18T20:53:59.865Z,8.25
2022-11-18T20:56:28.115Z,8.28
2022-11-18T20:58:57.196Z,8.25
2022-11-18T21:01:27.723Z,8.24
2022-11-18T21:04:00.777Z,8.19
2022-11-18T21:06:30.443Z,8.16
2022-11-18T21:09:00.506Z,8.15
2022-11-18T21:11:28.453Z,8.20
2022-11-18T21:14:19.867Z,8.16
2022-11-18T21:16:51.839Z,8.10
2022-11-18T21:19:19.542Z,8.09
2022-11-18T21:21:48.905Z,8.07
2022-11-18T21:24:19.121Z,8.06
2022-11-18T21:26:48.700Z,8.06
2022-11-18T21:29:18.164Z,8.04
2022-11-18T21:31:47.197Z,8.07
2022-11-18T21:34:16.017Z,8.07
2022-11-18T21:36:46.983Z,8.03
2022-11-18T21:39:17.169Z,8.01
2022-11-18T21:41:45.189Z,8.00
2022-11-18T21:44:14.244Z,8.04
2022-11-18T21:46:42.577Z,8.05
2022-11-18T21:49:10.419Z,8.09
2022-11-18T21:51:38.029Z,8.04
2022-11-18T21:54:05.786Z,8.11
2022-11-18T21:56:33.380Z,8.14
2022-11-18T21:59:02.767Z,8.09
2022-11-18T22:01:33.291Z,8.11
2022-11-18T22:04:03.749Z,8.13
2022-11-18T22:06:33.795Z,8.12
2022-11-18T22:09:03.440Z,8.13
2022-11-18T22:11:31.013Z,8.12
2022-11-18T22:13:58.465Z,8.07
2022-11-18T22:16:27.252Z,8.09
2022-11-18T22:19:00.347Z,8.07
2022-11-18T22:21:32.066Z,8.08
2022-11-18T22:24:00.861Z,8.07
2022-11-18T22:26:29.331Z,8.11
2022-11-18T22:28:58.401Z,8.08
2022-11-18T22:31:27.809Z,8.09
2022-11-18T22:33:56.211Z,8.04
2022-11-18T22:36:26.101Z,8.04
2022-11-18T22:38:54.233Z,8.09
2022-11-18T22:41:42.699Z,8.03
2022-11-18T22:44:11.830Z,8.01
2022-11-18T22:46:40.445Z,8.02
2022-11-18T22:49:09.049Z,8.03
2022-11-18T22:51:37.475Z,8.05
2022-11-18T22:56:54.588Z,8.03
2022-11-18T22:59:22.458Z,8.06
2022-11-18T23:01:53.344Z,8.04
2022-11-18T23:04:21.281Z,8.08
2022-11-18T23:06:49.718Z,8.04
2022-11-18T23:09:17.769Z,8.04
2022-11-18T23:12:04.339Z,8.07
2022-11-18T23:14:31.952Z,8.08
2022-11-18T23:16:59.846Z,8.07
2022-11-18T23:19:27.321Z,8.07
2022-11-18T23:21:54.780Z,8.06
2022-11-18T23:24:22.723Z,8.08
2022-11-18T23:26:50.158Z,8.06
2022-11-18T23:29:17.983Z,8.05
2022-11-18T23:31:46.009Z,8.13
2022-11-18T23:34:15.850Z,8.07
2022-11-18T23:36:43.509Z,8.06
2022-11-18T23:39:11.833Z,8.09
2022-11-18T23:41:39.879Z,8.08
2022-11-18T23:44:07.821Z,8.08
2022-11-18T23:46:36.031Z,8.12
2022-11-18T23:49:07.748Z,8.11
2022-11-18T23:51:35.527Z,8.03
2022-11-18T23:54:02.939Z,8.05
2022-11-18T23:56:35.004Z,8.09
2022-11-18T23:59:05.482Z,8.10
